sensor_id;sensor_type;location;lat;lon;timestamp;P1;durP1;ratioP1;P2;durP2;ratioP2
8139;SDS011;4111;50.972;7.072;2023-03-03T00:00:43;23.50;;;17.30;;
8139;SDS011;4111;50.972;7.072;2023-03-03T00:03:10;24.27;;;18.77;;
8139;SDS011;4111;50.972;7.072;2023-03-03T00:05:41;25.40;;;18.40;;
8139;SDS011;4111;50.972;7.072;2023-03-03T00:08:08;24.17;;;19.43;;
8139;SDS011;4111;50.972;7.072;2023-03-03T00:10:35;27.30;;;18.63;;
8139;SDS011;4111;50.972;7.072;2023-03-03T00:13:03;25.40;;;19.10;;
8139;SDS011;4111;50.972;7.072;2023-03-03T00:15:31;23.63;;;17.90;;
8139;SDS011;4111;50.972;7.072;2023-03-03T00:17:57;26.83;;;18.67;;
8139;SDS011;4111;50.972;7.072;2023-03-03T00:23:08;29.27;;;18.87;;
8139;SDS011;4111;50.972;7.072;2023-03-03T00:25:42;24.20;;;19.53;;
8139;SDS011;4111;50.972;7.072;2023-03-03T00:28:19;26.80;;;19.67;;
8139;SDS011;4111;50.972;7.072;2023-03-03T00:30:58;25.73;;;18.90;;
8139;SDS011;4111;50.972;7.072;2023-03-03T00:33:30;24.13;;;17.97;;
8139;SDS011;4111;50.972;7.072;2023-03-03T00:36:06;26.00;;;19.03;;
8139;SDS011;4111;50.972;7.072;2023-03-03T00:41:51;28.03;;;18.70;;
8139;SDS011;4111;50.972;7.072;2023-03-03T00:52:37;31.37;;;19.43;;
8139;SDS011;4111;50.972;7.072;2023-03-03T00:55:06;29.80;;;20.87;;
8139;SDS011;4111;50.972;7.072;2023-03-03T00:57:33;29.47;;;20.37;;
8139;SDS011;4111;50.972;7.072;2023-03-03T01:00:00;28.70;;;20.23;;
8139;SDS011;4111;50.972;7.072;2023-03-03T01:02:26;27.83;;;19.93;;
8139;SDS011;4111;50.972;7.072;2023-03-03T01:04:53;29.77;;;21.63;;
8139;SDS011;4111;50.972;7.072;2023-03-03T01:07:21;25.20;;;18.90;;
8139;SDS011;4111;50.972;7.072;2023-03-03T01:09:48;34.10;;;21.13;;
8139;SDS011;4111;50.972;7.072;2023-03-03T01:12:15;27.67;;;20.43;;
8139;SDS011;4111;50.972;7.072;2023-03-03T01:14:41;29.87;;;21.67;;
8139;SDS011;4111;50.972;7.072;2023-03-03T01:17:08;32.63;;;21.73;;
8139;SDS011;4111;50.972;7.072;2023-03-03T01:19:34;28.07;;;21.63;;
8139;SDS011;4111;50.972;7.072;2023-03-03T01:22:01;30.13;;;21.77;;
8139;SDS011;4111;50.972;7.072;2023-03-03T01:24:27;32.43;;;21.40;;
8139;SDS011;4111;50.972;7.072;2023-03-03T01:26:54;28.20;;;21.00;;
8139;SDS011;4111;50.972;7.072;2023-03-03T01:29:20;27.67;;;20.90;;
8139;SDS011;4111;50.972;7.072;2023-03-03T01:31:46;30.40;;;20.97;;
8139;SDS011;4111;50.972;7.072;2023-03-03T01:34:13;32.33;;;23.30;;
8139;SDS011;4111;50.972;7.072;2023-03-03T01:36:39;30.93;;;22.93;;
8139;SDS011;4111;50.972;7.072;2023-03-03T01:39:05;35.13;;;22.33;;
8139;SDS011;4111;50.972;7.072;2023-03-03T01:41:32;31.20;;;22.40;;
8139;SDS011;4111;50.972;7.072;2023-03-03T01:43:59;31.90;;;21.03;;
8139;SDS011;4111;50.972;7.072;2023-03-03T01:49:21;33.43;;;22.73;;
8139;SDS011;4111;50.972;7.072;2023-03-03T01:51:54;31.73;;;21.63;;
8139;SDS011;4111;50.972;7.072;2023-03-03T01:54:28;32.67;;;23.77;;
8139;SDS011;4111;50.972;7.072;2023-03-03T01:57:02;29.63;;;21.47;;
8139;SDS011;4111;50.972;7.072;2023-03-03T01:59:33;30.30;;;22.37;;
8139;SDS011;4111;50.972;7.072;2023-03-03T02:02:03;31.57;;;23.57;;
8139;SDS011;4111;50.972;7.072;2023-03-03T02:04:30;31.27;;;22.70;;
8139;SDS011;4111;50.972;7.072;2023-03-03T02:06:57;34.80;;;23.63;;
8139;SDS011;4111;50.972;7.072;2023-03-03T02:09:31;33.67;;;24.07;;
8139;SDS011;4111;50.972;7.072;2023-03-03T02:12:02;36.20;;;23.17;;
8139;SDS011;4111;50.972;7.072;2023-03-03T02:14:32;34.27;;;24.00;;
8139;SDS011;4111;50.972;7.072;2023-03-03T02:16:59;32.43;;;23.27;;
8139;SDS011;4111;50.972;7.072;2023-03-03T02:19:32;32.70;;;22.97;;
8139;SDS011;4111;50.972;7.072;2023-03-03T02:22:09;33.37;;;23.53;;
8139;SDS011;4111;50.972;7.072;2023-03-03T02:24:38;38.17;;;24.23;;
8139;SDS011;4111;50.972;7.072;2023-03-03T02:27:09;34.40;;;23.80;;
8139;SDS011;4111;50.972;7.072;2023-03-03T02:29:36;32.63;;;22.97;;
8139;SDS011;4111;50.972;7.072;2023-03-03T02:32:02;34.80;;;23.10;;
8139;SDS011;4111;50.972;7.072;2023-03-03T02:34:29;31.47;;;23.63;;
8139;SDS011;4111;50.972;7.072;2023-03-03T02:36:55;33.93;;;23.60;;
8139;SDS011;4111;50.972;7.072;2023-03-03T02:39:23;35.43;;;24.27;;
8139;SDS011;4111;50.972;7.072;2023-03-03T02:41:57;32.67;;;24.03;;
8139;SDS011;4111;50.972;7.072;2023-03-03T02:44:29;36.53;;;24.47;;
8139;SDS011;4111;50.972;7.072;2023-03-03T02:46:57;32.57;;;23.47;;
8139;SDS011;4111;50.972;7.072;2023-03-03T02:49:25;32.77;;;22.87;;
8139;SDS011;4111;50.972;7.072;2023-03-03T02:51:59;35.57;;;24.67;;
8139;SDS011;4111;50.972;7.072;2023-03-03T02:54:28;33.50;;;23.43;;
8139;SDS011;4111;50.972;7.072;2023-03-03T02:56:56;36.37;;;24.60;;
8139;SDS011;4111;50.972;7.072;2023-03-03T02:59:23;33.83;;;24.07;;
8139;SDS011;4111;50.972;7.072;2023-03-03T03:01:50;34.43;;;24.90;;
8139;SDS011;4111;50.972;7.072;2023-03-03T03:04:21;34.93;;;24.63;;
8139;SDS011;4111;50.972;7.072;2023-03-03T03:06:49;36.07;;;24.43;;
8139;SDS011;4111;50.972;7.072;2023-03-03T03:09:17;35.23;;;25.23;;
8139;SDS011;4111;50.972;7.072;2023-03-03T03:11:44;36.40;;;25.47;;
8139;SDS011;4111;50.972;7.072;2023-03-03T03:14:11;34.67;;;25.53;;
8139;SDS011;4111;50.972;7.072;2023-03-03T03:16:39;33.90;;;24.27;;
8139;SDS011;4111;50.972;7.072;2023-03-03T03:19:06;36.97;;;25.10;;
8139;SDS011;4111;50.972;7.072;2023-03-03T03:21:33;35.87;;;24.47;;
8139;SDS011;4111;50.972;7.072;2023-03-03T03:23:59;34.40;;;24.13;;
8139;SDS011;4111;50.972;7.072;2023-03-03T03:26:26;35.53;;;24.03;;
8139;SDS011;4111;50.972;7.072;2023-03-03T03:28:52;37.57;;;24.60;;
8139;SDS011;4111;50.972;7.072;2023-03-03T03:31:19;35.90;;;25.23;;
8139;SDS011;4111;50.972;7.072;2023-03-03T03:33:47;33.17;;;23.37;;
8139;SDS011;4111;50.972;7.072;2023-03-03T03:36:14;38.10;;;25.03;;
8139;SDS011;4111;50.972;7.072;2023-03-03T03:38:40;36.70;;;25.83;;
8139;SDS011;4111;50.972;7.072;2023-03-03T03:41:06;34.33;;;23.93;;
8139;SDS011;4111;50.972;7.072;2023-03-03T03:43:33;34.83;;;24.17;;
8139;SDS011;4111;50.972;7.072;2023-03-03T03:46:00;34.87;;;24.20;;
8139;SDS011;4111;50.972;7.072;2023-03-03T03:48:27;38.20;;;24.90;;
8139;SDS011;4111;50.972;7.072;2023-03-03T03:50:53;35.93;;;25.07;;
8139;SDS011;4111;50.972;7.072;2023-03-03T03:53:20;33.27;;;23.13;;
8139;SDS011;4111;50.972;7.072;2023-03-03T03:55:46;37.33;;;24.20;;
8139;SDS011;4111;50.972;7.072;2023-03-03T03:58:13;33.77;;;23.50;;
8139;SDS011;4111;50.972;7.072;2023-03-03T04:00:43;34.13;;;24.33;;
8139;SDS011;4111;50.972;7.072;2023-03-03T04:03:10;36.07;;;24.20;;
8139;SDS011;4111;50.972;7.072;2023-03-03T04:05:39;36.47;;;24.67;;
8139;SDS011;4111;50.972;7.072;2023-03-03T04:08:06;33.50;;;23.63;;
8139;SDS011;4111;50.972;7.072;2023-03-03T04:10:33;36.70;;;25.10;;
8139;SDS011;4111;50.972;7.072;2023-03-03T04:13:00;34.73;;;24.37;;
8139;SDS011;4111;50.972;7.072;2023-03-03T04:15:27;33.23;;;23.50;;
8139;SDS011;4111;50.972;7.072;2023-03-03T04:17:53;37.83;;;24.57;;
8139;SDS011;4111;50.972;7.072;2023-03-03T04:20:19;35.40;;;24.43;;
8139;SDS011;4111;50.972;7.072;2023-03-03T04:22:46;36.93;;;24.60;;
8139;SDS011;4111;50.972;7.072;2023-03-03T04:25:13;36.57;;;24.67;;
8139;SDS011;4111;50.972;7.072;2023-03-03T04:27:41;33.27;;;23.17;;
8139;SDS011;4111;50.972;7.072;2023-03-03T04:30:08;34.90;;;23.93;;
8139;SDS011;4111;50.972;7.072;2023-03-03T04:32:36;34.33;;;23.67;;
8139;SDS011;4111;50.972;7.072;2023-03-03T04:35:03;32.83;;;24.27;;
8139;SDS011;4111;50.972;7.072;2023-03-03T04:37:34;32.80;;;24.13;;
8139;SDS011;4111;50.972;7.072;2023-03-03T04:40:03;37.47;;;25.03;;
8139;SDS011;4111;50.972;7.072;2023-03-03T04:42:31;30.77;;;22.70;;
8139;SDS011;4111;50.972;7.072;2023-03-03T04:44:58;33.50;;;23.50;;
8139;SDS011;4111;50.972;7.072;2023-03-03T04:47:24;34.97;;;23.13;;
8139;SDS011;4111;50.972;7.072;2023-03-03T04:49:51;32.00;;;22.53;;
8139;SDS011;4111;50.972;7.072;2023-03-03T04:52:17;31.27;;;21.87;;
8139;SDS011;4111;50.972;7.072;2023-03-03T04:54:44;32.80;;;21.97;;
8139;SDS011;4111;50.972;7.072;2023-03-03T04:57:10;37.27;;;23.63;;
8139;SDS011;4111;50.972;7.072;2023-03-03T04:59:37;31.07;;;21.07;;
8139;SDS011;4111;50.972;7.072;2023-03-03T05:02:03;33.80;;;23.90;;
8139;SDS011;4111;50.972;7.072;2023-03-03T05:04:30;31.53;;;22.70;;
8139;SDS011;4111;50.972;7.072;2023-03-03T05:06:57;32.40;;;22.67;;
8139;SDS011;4111;50.972;7.072;2023-03-03T05:09:23;34.17;;;23.10;;
8139;SDS011;4111;50.972;7.072;2023-03-03T05:11:50;28.57;;;20.67;;
8139;SDS011;4111;50.972;7.072;2023-03-03T05:14:16;29.60;;;20.97;;
8139;SDS011;4111;50.972;7.072;2023-03-03T05:16:43;31.33;;;21.27;;
8139;SDS011;4111;50.972;7.072;2023-03-03T05:19:09;31.53;;;21.27;;
8139;SDS011;4111;50.972;7.072;2023-03-03T05:21:37;31.80;;;20.57;;
8139;SDS011;4111;50.972;7.072;2023-03-03T05:24:08;30.00;;;19.80;;
8139;SDS011;4111;50.972;7.072;2023-03-03T05:26:36;29.73;;;20.30;;
8139;SDS011;4111;50.972;7.072;2023-03-03T05:29:02;28.47;;;19.27;;
8139;SDS011;4111;50.972;7.072;2023-03-03T05:31:30;29.13;;;19.50;;
8139;SDS011;4111;50.972;7.072;2023-03-03T05:33:57;29.27;;;20.53;;
8139;SDS011;4111;50.972;7.072;2023-03-03T05:36:23;27.87;;;19.40;;
8139;SDS011;4111;50.972;7.072;2023-03-03T05:38:50;28.80;;;19.87;;
8139;SDS011;4111;50.972;7.072;2023-03-03T05:41:16;27.87;;;18.63;;
8139;SDS011;4111;50.972;7.072;2023-03-03T05:43:43;28.97;;;20.73;;
8139;SDS011;4111;50.972;7.072;2023-03-03T05:46:10;27.20;;;19.47;;
8139;SDS011;4111;50.972;7.072;2023-03-03T05:48:36;29.57;;;19.47;;
8139;SDS011;4111;50.972;7.072;2023-03-03T05:51:03;26.60;;;18.63;;
8139;SDS011;4111;50.972;7.072;2023-03-03T05:53:30;23.70;;;17.57;;
8139;SDS011;4111;50.972;7.072;2023-03-03T05:55:56;26.00;;;18.53;;
8139;SDS011;4111;50.972;7.072;2023-03-03T05:58:23;28.43;;;19.10;;
8139;SDS011;4111;50.972;7.072;2023-03-03T06:00:49;28.20;;;19.43;;
8139;SDS011;4111;50.972;7.072;2023-03-03T06:03:16;26.80;;;18.83;;
8139;SDS011;4111;50.972;7.072;2023-03-03T06:05:43;26.97;;;19.33;;
8139;SDS011;4111;50.972;7.072;2023-03-03T06:08:09;27.33;;;18.37;;
8139;SDS011;4111;50.972;7.072;2023-03-03T06:10:36;27.47;;;19.40;;
8139;SDS011;4111;50.972;7.072;2023-03-03T06:13:02;25.87;;;17.50;;
8139;SDS011;4111;50.972;7.072;2023-03-03T06:15:29;27.43;;;18.80;;
8139;SDS011;4111;50.972;7.072;2023-03-03T06:17:55;29.73;;;20.23;;
8139;SDS011;4111;50.972;7.072;2023-03-03T06:20:22;26.53;;;18.77;;
8139;SDS011;4111;50.972;7.072;2023-03-03T06:22:48;29.50;;;19.43;;
8139;SDS011;4111;50.972;7.072;2023-03-03T06:25:14;27.17;;;18.97;;
8139;SDS011;4111;50.972;7.072;2023-03-03T06:27:41;29.60;;;18.90;;
8139;SDS011;4111;50.972;7.072;2023-03-03T06:30:08;27.20;;;18.57;;
8139;SDS011;4111;50.972;7.072;2023-03-03T06:32:34;28.23;;;18.17;;
8139;SDS011;4111;50.972;7.072;2023-03-03T06:35:01;26.43;;;18.50;;
8139;SDS011;4111;50.972;7.072;2023-03-03T06:37:27;28.00;;;18.73;;
8139;SDS011;4111;50.972;7.072;2023-03-03T06:39:54;29.67;;;18.30;;
8139;SDS011;4111;50.972;7.072;2023-03-03T06:42:21;27.43;;;18.93;;
8139;SDS011;4111;50.972;7.072;2023-03-03T06:44:49;26.87;;;18.03;;
8139;SDS011;4111;50.972;7.072;2023-03-03T06:47:16;29.93;;;18.00;;
8139;SDS011;4111;50.972;7.072;2023-03-03T06:49:42;27.47;;;17.60;;
8139;SDS011;4111;50.972;7.072;2023-03-03T06:52:19;23.67;;;17.50;;
8139;SDS011;4111;50.972;7.072;2023-03-03T06:54:49;26.47;;;17.43;;
8139;SDS011;4111;50.972;7.072;2023-03-03T06:57:27;26.93;;;18.27;;
8139;SDS011;4111;50.972;7.072;2023-03-03T06:59:55;27.43;;;17.17;;
8139;SDS011;4111;50.972;7.072;2023-03-03T07:02:25;22.93;;;17.30;;
8139;SDS011;4111;50.972;7.072;2023-03-03T07:04:52;27.03;;;17.80;;
8139;SDS011;4111;50.972;7.072;2023-03-03T07:09:52;22.80;;;16.23;;
8139;SDS011;4111;50.972;7.072;2023-03-03T07:12:21;23.53;;;16.73;;
8139;SDS011;4111;50.972;7.072;2023-03-03T07:14:52;20.87;;;15.27;;
8139;SDS011;4111;50.972;7.072;2023-03-03T07:17:27;21.20;;;16.27;;
8139;SDS011;4111;50.972;7.072;2023-03-03T07:19:53;22.37;;;15.57;;
8139;SDS011;4111;50.972;7.072;2023-03-03T07:22:20;22.07;;;15.17;;
8139;SDS011;4111;50.972;7.072;2023-03-03T07:24:51;21.80;;;15.27;;
8139;SDS011;4111;50.972;7.072;2023-03-03T07:27:28;20.33;;;15.03;;
8139;SDS011;4111;50.972;7.072;2023-03-03T07:30:08;22.73;;;16.30;;
8139;SDS011;4111;50.972;7.072;2023-03-03T07:32:41;20.37;;;14.57;;
8139;SDS011;4111;50.972;7.072;2023-03-03T07:35:20;22.57;;;15.47;;
8139;SDS011;4111;50.972;7.072;2023-03-03T07:37:49;21.20;;;15.77;;
8139;SDS011;4111;50.972;7.072;2023-03-03T07:40:32;24.27;;;16.57;;
8139;SDS011;4111;50.972;7.072;2023-03-03T07:43:14;23.73;;;15.47;;
8139;SDS011;4111;50.972;7.072;2023-03-03T07:46:22;19.93;;;14.60;;
8139;SDS011;4111;50.972;7.072;2023-03-03T07:48:53;22.43;;;15.50;;
8139;SDS011;4111;50.972;7.072;2023-03-03T07:51:24;22.10;;;14.90;;
8139;SDS011;4111;50.972;7.072;2023-03-03T07:57:11;20.07;;;14.17;;
8139;SDS011;4111;50.972;7.072;2023-03-03T07:59:59;20.07;;;14.93;;
8139;SDS011;4111;50.972;7.072;2023-03-03T08:02:42;21.53;;;14.50;;
8139;SDS011;4111;50.972;7.072;2023-03-03T08:07:51;23.07;;;15.43;;
8139;SDS011;4111;50.972;7.072;2023-03-03T08:10:26;26.30;;;15.97;;
8139;SDS011;4111;50.972;7.072;2023-03-03T08:13:00;24.23;;;14.80;;
8139;SDS011;4111;50.972;7.072;2023-03-03T08:15:37;20.20;;;15.63;;
8139;SDS011;4111;50.972;7.072;2023-03-03T08:18:09;18.97;;;14.67;;
8139;SDS011;4111;50.972;7.072;2023-03-03T08:21:23;23.03;;;16.27;;
8139;SDS011;4111;50.972;7.072;2023-03-03T08:23:51;21.80;;;14.80;;
8139;SDS011;4111;50.972;7.072;2023-03-03T08:26:19;21.63;;;15.27;;
8139;SDS011;4111;50.972;7.072;2023-03-03T08:28:47;20.03;;;15.17;;
8139;SDS011;4111;50.972;7.072;2023-03-03T08:31:14;20.30;;;15.60;;
8139;SDS011;4111;50.972;7.072;2023-03-03T08:33:59;18.10;;;13.73;;
8139;SDS011;4111;50.972;7.072;2023-03-03T08:36:27;21.93;;;15.67;;
8139;SDS011;4111;50.972;7.072;2023-03-03T08:38:53;22.00;;;15.27;;
8139;SDS011;4111;50.972;7.072;2023-03-03T08:41:19;20.07;;;14.77;;
8139;SDS011;4111;50.972;7.072;2023-03-03T08:43:46;18.90;;;14.20;;
8139;SDS011;4111;50.972;7.072;2023-03-03T08:46:13;20.73;;;14.80;;
8139;SDS011;4111;50.972;7.072;2023-03-03T08:48:40;19.50;;;14.40;;
8139;SDS011;4111;50.972;7.072;2023-03-03T08:51:07;21.60;;;14.03;;
8139;SDS011;4111;50.972;7.072;2023-03-03T08:53:34;20.40;;;14.33;;
8139;SDS011;4111;50.972;7.072;2023-03-03T08:56:03;19.60;;;14.43;;
8139;SDS011;4111;50.972;7.072;2023-03-03T08:58:32;21.00;;;14.67;;
8139;SDS011;4111;50.972;7.072;2023-03-03T09:01:02;21.37;;;14.73;;
8139;SDS011;4111;50.972;7.072;2023-03-03T09:03:29;22.83;;;14.47;;
8139;SDS011;4111;50.972;7.072;2023-03-03T09:05:56;19.60;;;14.33;;
8139;SDS011;4111;50.972;7.072;2023-03-03T09:08:24;19.43;;;13.90;;
8139;SDS011;4111;50.972;7.072;2023-03-03T09:10:51;18.07;;;13.60;;
8139;SDS011;4111;50.972;7.072;2023-03-03T09:13:18;18.33;;;13.63;;
8139;SDS011;4111;50.972;7.072;2023-03-03T09:15:46;19.13;;;13.33;;
8139;SDS011;4111;50.972;7.072;2023-03-03T09:21:17;18.77;;;12.53;;
8139;SDS011;4111;50.972;7.072;2023-03-03T09:23:49;17.83;;;12.40;;
8139;SDS011;4111;50.972;7.072;2023-03-03T09:29:16;17.43;;;12.40;;
8139;SDS011;4111;50.972;7.072;2023-03-03T09:31:50;20.07;;;12.83;;
8139;SDS011;4111;50.972;7.072;2023-03-03T09:37:23;16.60;;;12.13;;
8139;SDS011;4111;50.972;7.072;2023-03-03T09:39:57;18.23;;;12.63;;
8139;SDS011;4111;50.972;7.072;2023-03-03T09:42:27;14.70;;;10.80;;
8139;SDS011;4111;50.972;7.072;2023-03-03T09:45:22;16.67;;;11.50;;
8139;SDS011;4111;50.972;7.072;2023-03-03T09:53:46;16.27;;;11.83;;
8139;SDS011;4111;50.972;7.072;2023-03-03T09:56:33;15.37;;;11.30;;
8139;SDS011;4111;50.972;7.072;2023-03-03T10:01:59;17.30;;;12.30;;
8139;SDS011;4111;50.972;7.072;2023-03-03T10:04:42;16.27;;;11.33;;
8139;SDS011;4111;50.972;7.072;2023-03-03T10:10:22;16.33;;;12.13;;
8139;SDS011;4111;50.972;7.072;2023-03-03T10:21:29;15.30;;;11.77;;
8139;SDS011;4111;50.972;7.072;2023-03-03T10:24:04;17.53;;;12.73;;
8139;SDS011;4111;50.972;7.072;2023-03-03T10:33:03;17.27;;;13.23;;
8139;SDS011;4111;50.972;7.072;2023-03-03T10:38:44;16.83;;;12.13;;
8139;SDS011;4111;50.972;7.072;2023-03-03T10:41:30;16.80;;;11.67;;
8139;SDS011;4111;50.972;7.072;2023-03-03T10:44:27;20.83;;;13.43;;
8139;SDS011;4111;50.972;7.072;2023-03-03T11:03:44;24.30;;;15.57;;
8139;SDS011;4111;50.972;7.072;2023-03-03T11:12:08;18.50;;;13.53;;
8139;SDS011;4111;50.972;7.072;2023-03-03T11:20:58;17.80;;;13.27;;
8139;SDS011;4111;50.972;7.072;2023-03-03T11:23:38;21.00;;;13.53;;
8139;SDS011;4111;50.972;7.072;2023-03-03T11:39:49;18.87;;;13.87;;
8139;SDS011;4111;50.972;7.072;2023-03-03T11:45:18;18.80;;;14.23;;
8139;SDS011;4111;50.972;7.072;2023-03-03T11:47:58;16.43;;;13.10;;
8139;SDS011;4111;50.972;7.072;2023-03-03T11:50:50;17.73;;;13.60;;
8139;SDS011;4111;50.972;7.072;2023-03-03T11:53:26;17.70;;;13.20;;
8139;SDS011;4111;50.972;7.072;2023-03-03T11:56:18;16.23;;;12.80;;
8139;SDS011;4111;50.972;7.072;2023-03-03T11:58:51;16.63;;;12.80;;
8139;SDS011;4111;50.972;7.072;2023-03-03T12:04:19;16.77;;;12.93;;
8139;SDS011;4111;50.972;7.072;2023-03-03T12:07:04;17.10;;;13.70;;
8139;SDS011;4111;50.972;7.072;2023-03-03T12:12:45;18.87;;;14.30;;
8139;SDS011;4111;50.972;7.072;2023-03-03T12:26:35;18.77;;;14.90;;
8139;SDS011;4111;50.972;7.072;2023-03-03T12:32:14;19.37;;;16.00;;
8139;SDS011;4111;50.972;7.072;2023-03-03T12:34:53;19.57;;;15.73;;
8139;SDS011;4111;50.972;7.072;2023-03-03T12:40:27;17.50;;;14.47;;
8139;SDS011;4111;50.972;7.072;2023-03-03T12:43:06;17.83;;;14.53;;
8139;SDS011;4111;50.972;7.072;2023-03-03T12:48:13;19.57;;;16.63;;
8139;SDS011;4111;50.972;7.072;2023-03-03T12:53:46;17.30;;;14.80;;
8139;SDS011;4111;50.972;7.072;2023-03-03T13:07:23;21.13;;;15.80;;
8139;SDS011;4111;50.972;7.072;2023-03-03T13:12:58;22.57;;;18.33;;
8139;SDS011;4111;50.972;7.072;2023-03-03T13:15:37;22.70;;;17.37;;
8139;SDS011;4111;50.972;7.072;2023-03-03T13:18:33;25.50;;;17.13;;
8139;SDS011;4111;50.972;7.072;2023-03-03T13:21:38;21.40;;;17.90;;
8139;SDS011;4111;50.972;7.072;2023-03-03T13:24:15;19.90;;;16.53;;
8139;SDS011;4111;50.972;7.072;2023-03-03T13:26:54;20.67;;;16.27;;
8139;SDS011;4111;50.972;7.072;2023-03-03T13:29:26;20.00;;;16.03;;
8139;SDS011;4111;50.972;7.072;2023-03-03T13:32:02;19.73;;;16.10;;
8139;SDS011;4111;50.972;7.072;2023-03-03T13:37:41;23.50;;;17.10;;
8139;SDS011;4111;50.972;7.072;2023-03-03T13:42:40;23.93;;;16.67;;
8139;SDS011;4111;50.972;7.072;2023-03-03T13:45:12;22.77;;;17.27;;
8139;SDS011;4111;50.972;7.072;2023-03-03T13:47:49;24.20;;;18.73;;
8139;SDS011;4111;50.972;7.072;2023-03-03T13:56:22;25.20;;;21.27;;
8139;SDS011;4111;50.972;7.072;2023-03-03T13:59:22;24.97;;;20.63;;
8139;SDS011;4111;50.972;7.072;2023-03-03T14:02:27;25.40;;;20.57;;
8139;SDS011;4111;50.972;7.072;2023-03-03T14:11:09;32.80;;;24.53;;
8139;SDS011;4111;50.972;7.072;2023-03-03T14:16:57;29.13;;;23.10;;
8139;SDS011;4111;50.972;7.072;2023-03-03T14:19:34;25.97;;;21.73;;
8139;SDS011;4111;50.972;7.072;2023-03-03T14:22:15;27.07;;;22.40;;
8139;SDS011;4111;50.972;7.072;2023-03-03T14:25:07;25.93;;;21.53;;
8139;SDS011;4111;50.972;7.072;2023-03-03T14:30:56;32.20;;;24.60;;
8139;SDS011;4111;50.972;7.072;2023-03-03T14:35:35;30.80;;;23.10;;
8139;SDS011;4111;50.972;7.072;2023-03-03T14:38:51;30.87;;;24.57;;
8139;SDS011;4111;50.972;7.072;2023-03-03T14:41:12;29.47;;;24.03;;
8139;SDS011;4111;50.972;7.072;2023-03-03T14:43:41;32.40;;;24.47;;
8139;SDS011;4111;50.972;7.072;2023-03-03T14:48:54;30.57;;;23.97;;
8139;SDS011;4111;50.972;7.072;2023-03-03T14:51:26;33.80;;;24.17;;
8139;SDS011;4111;50.972;7.072;2023-03-03T14:54:13;31.53;;;24.73;;
8139;SDS011;4111;50.972;7.072;2023-03-03T14:59:23;32.47;;;23.33;;
8139;SDS011;4111;50.972;7.072;2023-03-03T15:02:07;32.07;;;24.43;;
8139;SDS011;4111;50.972;7.072;2023-03-03T15:04:41;34.93;;;24.20;;
8139;SDS011;4111;50.972;7.072;2023-03-03T15:09:53;32.50;;;23.70;;
8139;SDS011;4111;50.972;7.072;2023-03-03T15:12:21;30.43;;;22.97;;
8139;SDS011;4111;50.972;7.072;2023-03-03T15:14:49;30.63;;;22.00;;
8139;SDS011;4111;50.972;7.072;2023-03-03T15:23:00;37.30;;;26.33;;
8139;SDS011;4111;50.972;7.072;2023-03-03T15:28:44;36.83;;;25.97;;
8139;SDS011;4111;50.972;7.072;2023-03-03T15:54:49;39.40;;;24.57;;
8139;SDS011;4111;50.972;7.072;2023-03-03T16:03:50;40.47;;;25.40;;
8139;SDS011;4111;50.972;7.072;2023-03-03T16:06:23;41.07;;;24.70;;
8139;SDS011;4111;50.972;7.072;2023-03-03T16:09:18;41.27;;;24.90;;
8139;SDS011;4111;50.972;7.072;2023-03-03T16:12:03;41.13;;;23.50;;
8139;SDS011;4111;50.972;7.072;2023-03-03T16:28:33;38.27;;;20.87;;
8139;SDS011;4111;50.972;7.072;2023-03-03T16:31:10;35.53;;;20.87;;
8139;SDS011;4111;50.972;7.072;2023-03-03T16:33:54;32.00;;;19.57;;
8139;SDS011;4111;50.972;7.072;2023-03-03T16:36:35;33.83;;;20.57;;
8139;SDS011;4111;50.972;7.072;2023-03-03T16:42:31;34.60;;;19.77;;
8139;SDS011;4111;50.972;7.072;2023-03-03T16:45:44;38.23;;;21.20;;
8139;SDS011;4111;50.972;7.072;2023-03-03T16:56:42;36.93;;;19.83;;
8139;SDS011;4111;50.972;7.072;2023-03-03T17:08:03;31.87;;;18.83;;
8139;SDS011;4111;50.972;7.072;2023-03-03T17:10:50;30.93;;;18.43;;
8139;SDS011;4111;50.972;7.072;2023-03-03T17:14:27;31.67;;;18.67;;
8139;SDS011;4111;50.972;7.072;2023-03-03T17:16:49;31.67;;;19.73;;
8139;SDS011;4111;50.972;7.072;2023-03-03T17:22:11;41.20;;;20.73;;
8139;SDS011;4111;50.972;7.072;2023-03-03T17:27:13;34.07;;;19.13;;
8139;SDS011;4111;50.972;7.072;2023-03-03T17:46:54;35.93;;;21.17;;
8139;SDS011;4111;50.972;7.072;2023-03-03T17:58:03;35.73;;;20.70;;
8139;SDS011;4111;50.972;7.072;2023-03-03T18:00:47;37.90;;;22.87;;
8139;SDS011;4111;50.972;7.072;2023-03-03T18:06:12;38.97;;;21.63;;
8139;SDS011;4111;50.972;7.072;2023-03-03T18:12:00;38.03;;;22.80;;
8139;SDS011;4111;50.972;7.072;2023-03-03T18:14:53;40.27;;;23.77;;
8139;SDS011;4111;50.972;7.072;2023-03-03T18:22:52;39.77;;;21.17;;
8139;SDS011;4111;50.972;7.072;2023-03-03T18:25:23;39.73;;;22.90;;
8139;SDS011;4111;50.972;7.072;2023-03-03T18:30:28;37.83;;;22.53;;
8139;SDS011;4111;50.972;7.072;2023-03-03T18:33:04;41.27;;;23.97;;
8139;SDS011;4111;50.972;7.072;2023-03-03T18:35:41;39.17;;;22.27;;
8139;SDS011;4111;50.972;7.072;2023-03-03T18:43:46;41.60;;;22.37;;
8139;SDS011;4111;50.972;7.072;2023-03-03T18:48:56;41.90;;;22.40;;
8139;SDS011;4111;50.972;7.072;2023-03-03T18:56:44;36.73;;;22.23;;
8139;SDS011;4111;50.972;7.072;2023-03-03T19:07:44;44.23;;;21.83;;
8139;SDS011;4111;50.972;7.072;2023-03-03T19:12:48;36.43;;;22.33;;
8139;SDS011;4111;50.972;7.072;2023-03-03T19:17:55;40.50;;;22.07;;
8139;SDS011;4111;50.972;7.072;2023-03-03T19:20:39;37.53;;;21.57;;
8139;SDS011;4111;50.972;7.072;2023-03-03T19:23:16;42.93;;;23.70;;
8139;SDS011;4111;50.972;7.072;2023-03-03T19:25:45;40.80;;;22.87;;
8139;SDS011;4111;50.972;7.072;2023-03-03T19:28:42;43.37;;;22.73;;
8139;SDS011;4111;50.972;7.072;2023-03-03T19:33:58;46.40;;;23.37;;
8139;SDS011;4111;50.972;7.072;2023-03-03T19:36:41;41.37;;;23.80;;
8139;SDS011;4111;50.972;7.072;2023-03-03T19:42:05;43.03;;;24.03;;
8139;SDS011;4111;50.972;7.072;2023-03-03T19:50:21;42.27;;;22.67;;
8139;SDS011;4111;50.972;7.072;2023-03-03T19:55:57;42.33;;;22.67;;
8139;SDS011;4111;50.972;7.072;2023-03-03T20:01:43;44.43;;;24.63;;
8139;SDS011;4111;50.972;7.072;2023-03-03T20:04:18;48.23;;;26.83;;
8139;SDS011;4111;50.972;7.072;2023-03-03T20:09:54;43.87;;;26.23;;
8139;SDS011;4111;50.972;7.072;2023-03-03T20:15:19;47.08;;;27.13;;
8139;SDS011;4111;50.972;7.072;2023-03-03T20:39:33;50.70;;;26.77;;
8139;SDS011;4111;50.972;7.072;2023-03-03T20:51:04;48.40;;;26.17;;
8139;SDS011;4111;50.972;7.072;2023-03-03T20:56:40;52.17;;;28.10;;
8139;SDS011;4111;50.972;7.072;2023-03-03T20:59:17;46.90;;;27.70;;
8139;SDS011;4111;50.972;7.072;2023-03-03T21:01:56;53.07;;;27.97;;
8139;SDS011;4111;50.972;7.072;2023-03-03T21:04:42;48.10;;;28.63;;
8139;SDS011;4111;50.972;7.072;2023-03-03T21:07:12;49.03;;;29.57;;
8139;SDS011;4111;50.972;7.072;2023-03-03T21:09:49;51.93;;;28.80;;
8139;SDS011;4111;50.972;7.072;2023-03-03T21:12:34;50.77;;;28.67;;
8139;SDS011;4111;50.972;7.072;2023-03-03T21:15:00;53.77;;;29.97;;
8139;SDS011;4111;50.972;7.072;2023-03-03T21:17:29;48.60;;;28.37;;
8139;SDS011;4111;50.972;7.072;2023-03-03T21:22:57;54.37;;;29.03;;
8139;SDS011;4111;50.972;7.072;2023-03-03T21:33:37;52.90;;;30.20;;
8139;SDS011;4111;50.972;7.072;2023-03-03T21:36:12;49.47;;;30.17;;
8139;SDS011;4111;50.972;7.072;2023-03-03T21:38:50;50.60;;;29.37;;
8139;SDS011;4111;50.972;7.072;2023-03-03T21:41:18;55.03;;;30.13;;
8139;SDS011;4111;50.972;7.072;2023-03-03T21:43:46;46.87;;;28.70;;
8139;SDS011;4111;50.972;7.072;2023-03-03T21:46:22;52.53;;;30.50;;
8139;SDS011;4111;50.972;7.072;2023-03-03T21:48:50;52.10;;;30.27;;
8139;SDS011;4111;50.972;7.072;2023-03-03T21:51:17;54.93;;;31.43;;
8139;SDS011;4111;50.972;7.072;2023-03-03T21:53:45;52.80;;;31.63;;
8139;SDS011;4111;50.972;7.072;2023-03-03T21:56:12;53.40;;;30.90;;
8139;SDS011;4111;50.972;7.072;2023-03-03T21:58:41;56.07;;;31.60;;